Current | Forecast
Updated: 10:00 PM JST on June 26, 2017
Observed at Nagoya / Chubu, Japan
Temperature 73°F
Humidity 73%
Dew Point 64°F
Wind ESE at 8 mph
Pressure 29.77 in (Steady)
Conditions Light Rain
Visibility 6.2 miles
UV 0 out of 16
Clouds (FEW) : 2500 ft
Scattered Clouds (SCT) : 5000 ft
Overcast (OVC) : 10000 ft
Yesterday's Maximum 73°F
Yesterday's Minimum 68°F approx.
Yesterday's Cooling Degree Days 6 approx.
Sunrise4:42 AM JST
Sunset7:09 PM JST
Moon Rise6:51 AM JST
Moon Set9:02 PM JST
Moon PhaseMoon Phase
Waxing Crescent
Raw METARMETAR RJGG 261300Z 12007KT 9999 -RA FEW025 SCT050 OVC100 23/18 Q1008 NOSIG


Monday
. High: 69° F.
Tuesday
. High: 69° F.
Wednesday
. High: 71° F.
Thursday
. High: 69° F.
Friday
. High: 73° F.
Saturday
. High: 69° F.
Sunday
. High: 75° F.
Monday
. High: 77° F.

Units: English | Metric

Find the Weather for any City, State or Zipcode, or Country:

U.S. State List | Severe Weather | Tropical Storms | Ski Conditions
United States | Canada | Central America | South America | Asia | Europe | Australia | Africa | Islands

Weather Underground

© Copyright 2017
The Weather Company, LLC